createdAt,value
2019-03-29T00:00:15.765Z,0
2019-03-29T00:01:15.862Z,0
2019-03-29T00:02:16.367Z,0
2019-03-29T00:03:16.111Z,0
2019-03-29T00:04:16.214Z,0
2019-03-29T00:05:16.317Z,0
2019-03-29T00:06:16.414Z,0
2019-03-29T00:07:16.563Z,0
2019-03-29T00:08:16.665Z,0
2019-03-29T00:09:16.783Z,0
2019-03-29T00:10:16.897Z,0
2019-03-29T00:11:17.007Z,0
2019-03-29T00:12:17.180Z,0
2019-03-29T00:13:17.100Z,0
2019-03-29T00:14:17.201Z,0
2019-03-29T00:15:17.292Z,0
2019-03-29T00:16:17.399Z,0
2019-03-29T00:17:18.089Z,0
2019-03-29T00:18:17.522Z,0
2019-03-29T00:19:17.632Z,0
2019-03-29T00:20:17.734Z,0
2019-03-29T00:21:17.834Z,0
2019-03-29T00:22:18.006Z,0
2019-03-29T00:23:18.119Z,0
2019-03-29T00:24:18.240Z,0
2019-03-29T00:25:18.341Z,0
2019-03-29T00:26:18.481Z,0
2019-03-29T00:27:19.101Z,0
2019-03-29T00:28:18.749Z,0
2019-03-29T00:29:18.849Z,0
2019-03-29T00:30:19.006Z,0
2019-03-29T00:31:18.937Z,0
2019-03-29T00:32:19.119Z,0
2019-03-29T00:33:19.099Z,0
2019-03-29T00:34:19.200Z,0
2019-03-29T00:35:19.373Z,0
2019-03-29T00:36:19.512Z,0
2019-03-29T00:37:19.651Z,0
2019-03-29T00:38:19.587Z,0
2019-03-29T00:39:19.683Z,0
2019-03-29T00:40:19.789Z,0
2019-03-29T00:41:19.871Z,0
2019-03-29T00:42:20.030Z,0
2019-03-29T00:43:20.131Z,0
2019-03-29T00:44:20.249Z,0
2019-03-29T00:45:20.372Z,0
2019-03-29T00:46:20.499Z,0
2019-03-29T00:47:20.645Z,0
2019-03-29T00:48:21.217Z,0
2019-03-29T00:49:20.865Z,0
2019-03-29T00:50:20.973Z,0
2019-03-29T00:51:21.082Z,0
2019-03-29T00:52:21.230Z,0
2019-03-29T00:53:21.324Z,0
2019-03-29T00:54:21.436Z,0
2019-03-29T00:55:21.536Z,0
2019-03-29T00:56:21.632Z,0
2019-03-29T00:57:21.762Z,0
2019-03-29T00:58:22.284Z,0
2019-03-29T00:59:21.846Z,0
2019-03-29T01:00:21.955Z,0
2019-03-29T01:01:23.067Z,0
2019-03-29T01:02:22.188Z,0
2019-03-29T01:03:22.315Z,0
2019-03-29T01:04:22.436Z,0
2019-03-29T01:05:22.572Z,0
2019-03-29T01:06:22.679Z,0
2019-03-29T01:07:22.781Z,0
2019-03-29T01:08:22.938Z,0
2019-03-29T01:09:23.051Z,0
2019-03-29T01:10:23.172Z,0
2019-03-29T01:11:23.277Z,0
2019-03-29T01:12:23.429Z,0
2019-03-29T01:13:24.213Z,0
2019-03-29T01:14:23.672Z,0
2019-03-29T01:15:23.795Z,0
2019-03-29T01:16:23.897Z,0
2019-03-29T01:17:24.009Z,0
2019-03-29T01:18:24.175Z,0
2019-03-29T01:19:24.300Z,0
2019-03-29T01:20:24.393Z,0
2019-03-29T01:21:24.506Z,0
2019-03-29T01:22:24.604Z,0
2019-03-29T01:23:25.774Z,0
2019-03-29T01:24:24.895Z,0
2019-03-29T01:25:25.006Z,0
2019-03-29T01:26:25.112Z,0
2019-03-29T01:27:25.221Z,0
2019-03-29T01:28:25.362Z,0
2019-03-29T01:29:25.472Z,0
2019-03-29T01:30:25.561Z,0
2019-03-29T01:31:25.667Z,0
2019-03-29T01:32:25.774Z,0
2019-03-29T01:33:25.933Z,0
2019-03-29T01:34:27.047Z,0
2019-03-29T01:35:26.154Z,0
2019-03-29T01:36:26.258Z,0
2019-03-29T01:37:26.386Z,0
2019-03-29T01:38:26.498Z,0
2019-03-29T01:39:26.629Z,0
2019-03-29T01:40:26.774Z,0
2019-03-29T01:41:27.110Z,0
2019-03-29T01:42:27.035Z,0
2019-03-29T01:43:27.184Z,0
2019-03-29T01:44:28.006Z,0
2019-03-29T01:45:27.402Z,0
2019-03-29T01:46:27.543Z,0
2019-03-29T01:47:27.645Z,0
2019-03-29T01:48:27.802Z,0
2019-03-29T01:49:27.921Z,0
2019-03-29T01:50:28.041Z,0
2019-03-29T01:51:29.136Z,0
2019-03-29T01:52:30.150Z,0
2019-03-29T01:53:28.352Z,0
2019-03-29T01:54:28.462Z,0
2019-03-29T01:55:28.565Z,0
2019-03-29T01:56:28.675Z,0
2019-03-29T01:57:28.786Z,0
2019-03-29T01:58:28.918Z,0
2019-03-29T01:59:29.025Z,0
2019-03-29T02:00:29.129Z,0
2019-03-29T02:01:30.245Z,0
2019-03-29T02:02:29.340Z,0
2019-03-29T02:03:29.512Z,0
2019-03-29T02:04:29.622Z,0
2019-03-29T02:05:29.712Z,0
2019-03-29T02:06:29.810Z,0
2019-03-29T02:07:29.936Z,0
2019-03-29T02:08:35.809Z,0
2019-03-29T02:09:31.280Z,0
2019-03-29T02:10:30.337Z,0
2019-03-29T02:11:30.493Z,0
2019-03-29T02:12:30.641Z,0
2019-03-29T02:13:30.865Z,0
2019-03-29T02:14:30.797Z,0
2019-03-29T02:15:30.932Z,0
2019-03-29T02:16:31.080Z,0
2019-03-29T02:17:31.195Z,0
2019-03-29T02:18:31.341Z,0
2019-03-29T02:19:31.956Z,0
2019-03-29T02:20:31.583Z,0
2019-03-29T02:21:31.683Z,0
2019-03-29T02:22:31.796Z,0
2019-03-29T02:23:31.960Z,0
2019-03-29T02:24:31.959Z,0
2019-03-29T02:25:32.066Z,0
2019-03-29T02:26:32.172Z,0
2019-03-29T02:27:32.286Z,0
2019-03-29T02:28:32.447Z,0
2019-03-29T02:29:33.389Z,0
2019-03-29T02:30:32.602Z,0
2019-03-29T02:31:32.596Z,0
2019-03-29T02:32:33.746Z,0
2019-03-29T02:33:32.733Z,0
2019-03-29T02:34:32.683Z,0
2019-03-29T02:35:32.802Z,0
2019-03-29T02:36:34.461Z,0
2019-03-29T02:37:32.993Z,0
2019-03-29T02:38:33.131Z,0
2019-03-29T02:39:34.099Z,0
2019-03-29T02:40:33.201Z,0
2019-03-29T02:41:33.312Z,0
2019-03-29T02:42:33.420Z,0
2019-03-29T02:43:33.553Z,0
2019-03-29T02:44:34.745Z,0
2019-03-29T02:45:33.755Z,0
2019-03-29T02:46:33.863Z,0
2019-03-29T02:47:33.970Z,0
2019-03-29T02:48:34.426Z,0
2019-03-29T02:49:34.214Z,0
2019-03-29T02:50:34.315Z,0
2019-03-29T02:51:34.416Z,0
2019-03-29T02:52:34.526Z,0
2019-03-29T02:53:34.678Z,0
2019-03-29T02:54:34.745Z,0
2019-03-29T02:55:34.850Z,0
2019-03-29T02:56:34.979Z,0
2019-03-29T02:57:35.050Z,0
2019-03-29T02:58:35.275Z,0
2019-03-29T02:59:35.278Z,0
2019-03-29T03:00:35.280Z,0
2019-03-29T03:01:35.381Z,0
2019-03-29T03:02:35.483Z,0
2019-03-29T03:03:35.603Z,0
2019-03-29T03:04:35.597Z,0
2019-03-29T03:05:35.702Z,0
2019-03-29T03:06:35.803Z,0
2019-03-29T03:07:35.900Z,0
2019-03-29T03:08:35.970Z,0
2019-03-29T03:09:36.107Z,0
2019-03-29T03:10:36.207Z,0
2019-03-29T03:11:36.308Z,0
2019-03-29T03:12:36.409Z,0
2019-03-29T03:13:36.518Z,0
2019-03-29T03:14:36.531Z,0
2019-03-29T03:15:36.632Z,0
2019-03-29T03:16:36.733Z,0
2019-03-29T03:17:36.835Z,0
2019-03-29T03:18:36.937Z,0
2019-03-29T03:19:37.072Z,0
2019-03-29T03:20:37.181Z,0
2019-03-29T03:21:37.280Z,0
2019-03-29T03:22:37.375Z,0
2019-03-29T03:23:37.479Z,0
2019-03-29T03:24:37.630Z,0
2019-03-29T03:25:37.728Z,0
2019-03-29T03:26:37.818Z,0
2019-03-29T03:27:37.922Z,0
2019-03-29T03:28:38.025Z,0
2019-03-29T03:29:38.152Z,0
2019-03-29T03:30:39.242Z,0
2019-03-29T03:31:38.365Z,0
2019-03-29T03:32:38.495Z,0
2019-03-29T03:33:38.539Z,0
2019-03-29T03:34:38.689Z,0
2019-03-29T03:35:38.819Z,0
2019-03-29T03:36:38.899Z,0
2019-03-29T03:37:39.008Z,0
2019-03-29T03:38:39.126Z,0
2019-03-29T03:39:39.261Z,0
2019-03-29T03:40:39.368Z,0
2019-03-29T03:41:39.496Z,0
2019-03-29T03:42:39.567Z,0
2019-03-29T03:43:39.683Z,0
2019-03-29T03:44:39.813Z,0
2019-03-29T03:45:39.918Z,0
2019-03-29T03:46:40.015Z,0
2019-03-29T03:47:40.121Z,0
2019-03-29T03:48:40.228Z,0
2019-03-29T03:49:40.351Z,0
2019-03-29T03:50:40.467Z,0
2019-03-29T03:51:40.559Z,0
2019-03-29T03:52:40.661Z,0
2019-03-29T03:53:40.779Z,0
2019-03-29T03:54:40.921Z,0
2019-03-29T03:55:41.060Z,0
2019-03-29T03:56:41.136Z,0
2019-03-29T03:57:41.246Z,0
2019-03-29T03:58:41.348Z,0
2019-03-29T03:59:41.499Z,0
2019-03-29T04:00:41.606Z,0
2019-03-29T04:01:41.717Z,0
2019-03-29T04:02:41.826Z,0
2019-03-29T04:03:41.931Z,0
2019-03-29T04:04:42.058Z,0
2019-03-29T04:05:42.151Z,0
2019-03-29T04:06:42.249Z,0
2019-03-29T04:07:42.356Z,0
2019-03-29T04:08:42.459Z,0
2019-03-29T04:09:49.680Z,0
2019-03-29T04:10:43.622Z,0
2019-03-29T04:11:42.714Z,0
2019-03-29T04:12:42.829Z,0
2019-03-29T04:13:42.937Z,0
2019-03-29T04:14:43.098Z,0
2019-03-29T04:15:43.030Z,0
2019-03-29T04:16:43.137Z,0
2019-03-29T04:17:43.228Z,0
2019-03-29T04:18:43.332Z,0
2019-03-29T04:19:43.470Z,0
2019-03-29T04:20:43.573Z,0
2019-03-29T04:21:43.664Z,0
2019-03-29T04:22:43.790Z,0
2019-03-29T04:23:43.901Z,0
2019-03-29T04:24:44.052Z,0
2019-03-29T04:25:44.008Z,0
2019-03-29T04:26:44.104Z,0
2019-03-29T04:27:44.213Z,0
2019-03-29T04:28:44.319Z,0
2019-03-29T04:29:45.441Z,0
2019-03-29T04:30:44.405Z,0
2019-03-29T04:31:44.510Z,0
2019-03-29T04:32:44.664Z,0
2019-03-29T04:33:44.765Z,0
2019-03-29T04:34:45.041Z,0
2019-03-29T04:35:44.998Z,0
2019-03-29T04:36:45.099Z,0
2019-03-29T04:37:45.215Z,0
2019-03-29T04:38:45.318Z,0
2019-03-29T04:39:45.475Z,0
2019-03-29T04:40:46.574Z,0
2019-03-29T04:41:45.744Z,0
2019-03-29T04:42:45.836Z,0
2019-03-29T04:43:45.960Z,0
2019-03-29T04:44:46.135Z,0
2019-03-29T04:45:46.247Z,0
2019-03-29T04:46:46.362Z,0
2019-03-29T04:47:46.476Z,0
2019-03-29T04:48:46.580Z,0
2019-03-29T04:49:46.758Z,0
2019-03-29T04:50:46.701Z,0
2019-03-29T04:51:46.798Z,0
2019-03-29T04:52:46.946Z,0
2019-03-29T04:53:47.051Z,0
2019-03-29T04:54:47.202Z,0
2019-03-29T04:55:47.180Z,0
2019-03-29T04:56:47.304Z,0
2019-03-29T04:57:48.406Z,0
2019-03-29T04:58:47.568Z,0
2019-03-29T04:59:47.713Z,0
2019-03-29T05:00:47.826Z,0
2019-03-29T05:01:47.936Z,0
2019-03-29T05:02:48.055Z,0
2019-03-29T05:03:48.169Z,0
2019-03-29T05:04:48.302Z,0
2019-03-29T05:05:48.423Z,0
2019-03-29T05:06:48.539Z,0
2019-03-29T05:07:48.549Z,0
2019-03-29T05:08:48.680Z,0
2019-03-29T05:09:48.871Z,0
2019-03-29T05:10:48.816Z,0
2019-03-29T05:11:48.926Z,0
2019-03-29T05:12:48.916Z,0
2019-03-29T05:13:49.045Z,5.625
2019-03-29T05:14:49.217Z,5.625
2019-03-29T05:15:49.211Z,5.625
2019-03-29T05:16:49.214Z,5.625
2019-03-29T05:17:49.209Z,5.625
2019-03-29T05:18:49.371Z,5.625
2019-03-29T05:19:49.382Z,5.625
2019-03-29T05:20:49.412Z,5.625
2019-03-29T05:21:49.398Z,5.625
2019-03-29T05:22:49.565Z,5.625
2019-03-29T05:23:49.599Z,11.25
2019-03-29T05:24:49.657Z,11.25
2019-03-29T05:25:49.755Z,11.25
2019-03-29T05:26:49.803Z,11.25
2019-03-29T05:27:49.868Z,11.25
2019-03-29T05:28:49.922Z,11.25
2019-03-29T05:29:49.984Z,11.25
2019-03-29T05:30:50.094Z,16.875
2019-03-29T05:31:50.179Z,16.875
2019-03-29T05:32:50.206Z,16.875
2019-03-29T05:33:50.262Z,16.875
2019-03-29T05:34:50.322Z,16.875
2019-03-29T05:35:50.432Z,16.875
2019-03-29T05:36:50.488Z,16.875
2019-03-29T05:37:51.660Z,22.5
2019-03-29T05:38:50.592Z,22.5
2019-03-29T05:39:50.630Z,22.5
2019-03-29T05:40:50.738Z,22.5
2019-03-29T05:41:50.788Z,22.5
2019-03-29T05:42:50.848Z,22.5
2019-03-29T05:43:50.903Z,22.5
2019-03-29T05:44:50.955Z,28.125
2019-03-29T05:45:51.037Z,28.125
2019-03-29T05:46:51.082Z,28.125
2019-03-29T05:47:51.178Z,28.125
2019-03-29T05:48:51.235Z,28.125
2019-03-29T05:49:51.281Z,28.125
2019-03-29T05:50:51.354Z,28.125
2019-03-29T05:51:51.412Z,33.75
2019-03-29T05:52:51.456Z,33.75
2019-03-29T05:53:51.502Z,33.75
2019-03-29T05:54:51.547Z,33.75
2019-03-29T05:55:51.607Z,33.75
2019-03-29T05:56:51.662Z,33.75
2019-03-29T05:57:51.740Z,33.75
2019-03-29T05:58:51.837Z,39.375
2019-03-29T05:59:51.889Z,39.375
2019-03-29T06:00:51.973Z,39.375
2019-03-29T06:01:52.025Z,39.375
2019-03-29T06:02:52.073Z,39.375
2019-03-29T06:03:52.143Z,39.375
2019-03-29T06:04:52.214Z,39.375
2019-03-29T06:05:52.290Z,45
2019-03-29T06:06:53.352Z,45
2019-03-29T06:07:52.434Z,45
2019-03-29T06:08:52.481Z,45
2019-03-29T06:09:52.527Z,45
2019-03-29T06:10:52.579Z,45
2019-03-29T06:11:52.624Z,45
2019-03-29T06:12:52.677Z,50.625
2019-03-29T06:13:52.747Z,50.625
2019-03-29T06:14:52.798Z,50.625
2019-03-29T06:15:52.869Z,50.625
2019-03-29T06:16:52.922Z,50.625
2019-03-29T06:17:52.973Z,50.625
2019-03-29T06:18:53.022Z,50.625
2019-03-29T06:19:53.079Z,50.625
2019-03-29T06:20:53.169Z,56.25
2019-03-29T06:21:53.205Z,56.25
2019-03-29T06:22:53.247Z,56.25
2019-03-29T06:23:53.298Z,56.25
2019-03-29T06:24:53.333Z,56.25
2019-03-29T06:25:53.432Z,56.25
2019-03-29T06:26:53.471Z,56.25
2019-03-29T06:27:53.518Z,56.25
2019-03-29T06:28:53.568Z,56.25
2019-03-29T06:29:53.608Z,61.875
2019-03-29T06:30:53.720Z,61.875
2019-03-29T06:31:53.758Z,61.875
2019-03-29T06:32:53.816Z,61.875
2019-03-29T06:33:53.866Z,61.875
2019-03-29T06:34:53.928Z,61.875
2019-03-29T06:35:54.032Z,61.875
2019-03-29T06:36:54.074Z,61.875
2019-03-29T06:37:54.119Z,61.875
2019-03-29T06:38:54.195Z,67.5
2019-03-29T06:39:54.241Z,67.5
2019-03-29T06:41:02.471Z,67.5
2019-03-29T06:41:55.343Z,67.5
2019-03-29T06:42:54.384Z,67.5
2019-03-29T06:43:54.432Z,67.5
2019-03-29T06:44:54.499Z,67.5
2019-03-29T06:45:54.729Z,67.5
2019-03-29T06:46:54.607Z,67.5
2019-03-29T06:47:54.648Z,67.5
2019-03-29T06:48:54.695Z,73.125
2019-03-29T06:49:54.757Z,73.125
2019-03-29T06:50:54.878Z,73.125
2019-03-29T06:51:54.964Z,73.125
2019-03-29T06:52:54.985Z,73.125
2019-03-29T06:53:55.015Z,73.125
2019-03-29T06:54:55.070Z,73.125
2019-03-29T06:55:55.183Z,73.125
2019-03-29T06:56:55.233Z,73.125
2019-03-29T06:57:55.308Z,78.75
2019-03-29T06:58:55.386Z,78.75
2019-03-29T06:59:55.494Z,78.75
2019-03-29T07:00:55.572Z,78.75
2019-03-29T07:01:55.624Z,78.75
2019-03-29T07:02:55.659Z,78.75
2019-03-29T07:03:55.690Z,78.75
2019-03-29T07:04:55.778Z,78.75
2019-03-29T07:05:56.848Z,84.375
2019-03-29T07:06:55.890Z,84.375
2019-03-29T07:07:55.944Z,84.375
2019-03-29T07:08:55.986Z,84.375
2019-03-29T07:09:56.046Z,84.375
2019-03-29T07:10:56.109Z,84.375
2019-03-29T07:11:57.302Z,84.375
2019-03-29T07:12:56.631Z,84.375
2019-03-29T07:13:57.976Z,84.375
2019-03-29T07:14:56.355Z,90
2019-03-29T07:15:56.397Z,90
2019-03-29T07:16:56.515Z,90
2019-03-29T07:17:56.578Z,90
2019-03-29T07:18:56.625Z,90
2019-03-29T07:19:57.661Z,90
2019-03-29T07:20:56.707Z,90
2019-03-29T07:21:56.822Z,90
2019-03-29T07:22:56.873Z,90
2019-03-29T07:23:56.916Z,90
2019-03-29T07:24:56.957Z,95.625
2019-03-29T07:25:56.994Z,95.625
2019-03-29T07:26:57.018Z,95.625
2019-03-29T07:27:57.086Z,95.625
2019-03-29T07:28:57.163Z,95.625
2019-03-29T07:29:57.303Z,95.625
2019-03-29T07:30:57.353Z,90
2019-03-29T07:31:57.484Z,90
2019-03-29T07:32:57.544Z,90
2019-03-29T07:33:57.571Z,90
2019-03-29T07:34:57.621Z,95.625
2019-03-29T07:35:57.668Z,95.625
2019-03-29T07:36:57.847Z,95.625
2019-03-29T07:37:58.919Z,95.625
2019-03-29T07:38:57.979Z,95.625
2019-03-29T07:39:58.017Z,95.625
2019-03-29T07:40:58.098Z,95.625
2019-03-29T07:41:58.173Z,101.25
2019-03-29T07:42:58.241Z,101.25
2019-03-29T07:43:58.277Z,101.25
2019-03-29T07:44:58.329Z,101.25
2019-03-29T07:45:58.409Z,101.25
2019-03-29T07:46:58.484Z,101.25
2019-03-29T07:47:58.540Z,101.25
2019-03-29T07:48:58.609Z,101.25
2019-03-29T07:49:58.664Z,106.875
2019-03-29T07:50:58.711Z,106.875
2019-03-29T07:51:58.778Z,106.875
2019-03-29T07:52:58.830Z,106.875
2019-03-29T07:53:58.950Z,106.875
2019-03-29T07:54:59.031Z,106.875
2019-03-29T07:55:59.083Z,106.875
2019-03-29T07:56:59.196Z,112.5
2019-03-29T07:57:59.278Z,112.5
2019-03-29T07:58:59.318Z,112.5
2019-03-29T07:59:59.365Z,112.5
2019-03-29T08:00:59.416Z,112.5
2019-03-29T08:01:59.483Z,118.125
2019-03-29T08:02:59.523Z,118.125
2019-03-29T08:03:59.585Z,118.125
2019-03-29T08:04:59.632Z,123.75
2019-03-29T08:05:59.717Z,123.75
2019-03-29T08:06:59.809Z,129.375
2019-03-29T08:08:00.031Z,129.375
2019-03-29T08:09:00.907Z,135
2019-03-29T08:10:03.293Z,135
2019-03-29T08:10:59.997Z,135
2019-03-29T08:12:00.061Z,135
2019-03-29T08:13:00.099Z,140.625
2019-03-29T08:14:00.153Z,140.625
2019-03-29T08:15:00.344Z,140.625
2019-03-29T08:16:01.252Z,213.75
2019-03-29T08:17:00.303Z,528.75
2019-03-29T08:18:01.671Z,675
2019-03-29T08:19:00.388Z,675
2019-03-29T08:20:24.802Z,663.75
2019-03-29T08:21:01.486Z,658.125
2019-03-29T08:22:00.544Z,669.375
2019-03-29T08:23:00.576Z,703.125
2019-03-29T08:24:00.611Z,736.875
2019-03-29T08:25:00.712Z,765
2019-03-29T08:26:00.695Z,748.125
2019-03-29T08:27:00.765Z,641.25
2019-03-29T08:28:00.775Z,613.125
2019-03-29T08:29:00.927Z,652.5
2019-03-29T08:30:00.931Z,691.875
2019-03-29T08:31:00.942Z,804.375
2019-03-29T08:32:01.049Z,658.125
2019-03-29T08:33:01.046Z,703.125
2019-03-29T08:34:01.121Z,770.625
2019-03-29T08:35:01.263Z,731.25
2019-03-29T08:36:01.286Z,871.875
2019-03-29T08:37:01.336Z,900
2019-03-29T08:38:01.385Z,804.375
2019-03-29T08:39:01.403Z,652.5
2019-03-29T08:40:02.416Z,630
2019-03-29T08:41:01.513Z,753.75
2019-03-29T08:42:01.589Z,708.75
2019-03-29T08:43:01.568Z,675
2019-03-29T08:44:01.611Z,720
2019-03-29T08:45:01.661Z,613.125
2019-03-29T08:46:01.690Z,562.5
2019-03-29T08:47:01.834Z,517.5
2019-03-29T08:48:02.319Z,444.375
2019-03-29T08:49:01.970Z,551.25
2019-03-29T08:50:02.041Z,585
2019-03-29T08:51:03.086Z,511.875
2019-03-29T08:52:02.155Z,444.375
2019-03-29T08:53:02.213Z,421.875
2019-03-29T08:54:02.281Z,309.375
2019-03-29T08:55:02.322Z,241.875
2019-03-29T08:56:02.432Z,292.5
2019-03-29T08:57:02.465Z,337.5
2019-03-29T08:58:03.599Z,309.375
2019-03-29T08:59:02.600Z,433.125
2019-03-29T09:00:02.768Z,495
2019-03-29T09:01:02.797Z,455.625
2019-03-29T09:02:02.859Z,427.5
2019-03-29T09:03:02.942Z,466.875
2019-03-29T09:04:05.577Z,540
2019-03-29T09:05:02.989Z,376.875
2019-03-29T09:06:03.011Z,517.5
2019-03-29T09:07:03.138Z,708.75
2019-03-29T09:08:03.131Z,596.25
2019-03-29T09:09:03.179Z,500.625
2019-03-29T09:10:04.267Z,444.375
2019-03-29T09:11:03.460Z,500.625
2019-03-29T09:12:13.614Z,556.875
2019-03-29T09:13:04.854Z,708.75
2019-03-29T09:14:03.683Z,675
2019-03-29T09:15:04.258Z,720
2019-03-29T09:16:03.848Z,680.625
2019-03-29T09:17:03.895Z,556.875
2019-03-29T09:18:04.016Z,680.625
2019-03-29T09:19:04.182Z,708.75
2019-03-29T09:20:04.319Z,568.125
2019-03-29T09:21:04.379Z,444.375
2019-03-29T09:22:04.453Z,444.375
2019-03-29T09:23:04.421Z,354.375
2019-03-29T09:24:04.451Z,365.625
2019-03-29T09:25:05.545Z,742.5
2019-03-29T09:26:04.633Z,748.125
2019-03-29T09:27:04.703Z,511.875
2019-03-29T09:28:04.749Z,585
2019-03-29T09:29:04.772Z,742.5
2019-03-29T09:30:05.248Z,714.375
2019-03-29T09:31:04.897Z,601.875
2019-03-29T09:32:04.886Z,618.75
2019-03-29T09:33:05.038Z,500.625
2019-03-29T09:34:05.135Z,326.25
2019-03-29T09:35:05.191Z,399.375
2019-03-29T09:36:05.353Z,900
2019-03-29T09:37:05.324Z,1006.875
2019-03-29T09:38:05.448Z,545.625
2019-03-29T09:39:05.551Z,506.25
2019-03-29T09:40:05.596Z,736.875
2019-03-29T09:41:06.636Z,590.625
2019-03-29T09:42:09.170Z,573.75
2019-03-29T09:43:07.911Z,483.75
2019-03-29T09:44:05.756Z,202.5
2019-03-29T09:45:05.806Z,292.5
2019-03-29T09:46:05.845Z,528.75
2019-03-29T09:47:05.885Z,495
2019-03-29T09:48:06.001Z,736.875
2019-03-29T09:49:08.346Z,731.25
2019-03-29T09:50:06.251Z,793.125
2019-03-29T09:51:06.202Z,978.75
2019-03-29T09:52:06.313Z,1096.875
2019-03-29T09:53:06.370Z,961.875
2019-03-29T09:54:06.422Z,568.125
2019-03-29T09:55:06.468Z,399.375
2019-03-29T09:56:06.523Z,483.75
2019-03-29T09:57:09.669Z,427.5
2019-03-29T09:58:07.620Z,264.375
2019-03-29T09:59:07.759Z,309.375
2019-03-29T10:00:18.985Z,573.75
2019-03-29T10:01:07.804Z,652.5
2019-03-29T10:02:06.873Z,776.25
2019-03-29T10:03:06.950Z,517.5
2019-03-29T10:04:06.964Z,562.5
2019-03-29T10:05:07.031Z,748.125
2019-03-29T10:06:07.077Z,945
2019-03-29T10:07:08.180Z,978.75
2019-03-29T10:08:07.250Z,725.625
2019-03-29T10:09:07.326Z,399.375
2019-03-29T10:10:07.466Z,298.125
2019-03-29T10:11:08.555Z,253.125
2019-03-29T10:12:07.639Z,455.625
2019-03-29T10:13:07.659Z,568.125
2019-03-29T10:14:07.707Z,556.875
2019-03-29T10:15:07.808Z,489.375
2019-03-29T10:16:07.872Z,461.25
2019-03-29T10:17:07.935Z,444.375
2019-03-29T10:18:08.087Z,427.5
2019-03-29T10:19:08.136Z,562.5
2019-03-29T10:20:08.218Z,466.875
2019-03-29T10:21:08.276Z,534.375
2019-03-29T10:22:09.411Z,804.375
2019-03-29T10:23:08.592Z,781.875
2019-03-29T10:24:08.531Z,607.5
2019-03-29T10:25:18.833Z,675
2019-03-29T10:26:09.683Z,759.375
2019-03-29T10:27:08.826Z,866.25
2019-03-29T10:28:09.961Z,787.5
2019-03-29T10:29:09.015Z,826.875
2019-03-29T10:30:09.102Z,984.375
2019-03-29T10:31:09.109Z,1080
2019-03-29T10:32:09.485Z,1108.125
2019-03-29T10:33:09.254Z,1186.875
2019-03-29T10:34:09.204Z,1231.875
2019-03-29T10:35:09.348Z,1051.875
2019-03-29T10:36:09.403Z,1012.5
2019-03-29T10:37:09.452Z,860.625
2019-03-29T10:38:09.594Z,534.375
2019-03-29T10:39:10.644Z,405
2019-03-29T10:40:09.695Z,540
2019-03-29T10:41:09.824Z,877.5
2019-03-29T10:42:09.934Z,1102.5
2019-03-29T10:43:10.053Z,990
2019-03-29T10:44:10.143Z,928.125
2019-03-29T10:45:10.189Z,770.625
2019-03-29T10:46:10.288Z,888.75
2019-03-29T10:47:10.334Z,1113.75
2019-03-29T10:48:10.501Z,1153.125
2019-03-29T10:49:10.571Z,1068.75
2019-03-29T10:50:10.710Z,1141.875
2019-03-29T10:51:10.805Z,1316.25
2019-03-29T10:52:11.130Z,1288.125
2019-03-29T10:53:11.525Z,1153.125
2019-03-29T10:54:11.212Z,956.25
2019-03-29T10:55:11.308Z,1113.75
2019-03-29T10:56:11.270Z,1333.125
2019-03-29T10:57:11.373Z,1462.5
2019-03-29T10:58:11.455Z,1417.5
2019-03-29T10:59:11.589Z,1215
2019-03-29T11:00:12.613Z,1096.875
2019-03-29T11:01:12.729Z,1119.375
2019-03-29T11:02:11.766Z,1305
2019-03-29T11:03:11.843Z,1198.125
2019-03-29T11:04:11.968Z,1265.625
2019-03-29T11:05:12.071Z,1361.25
2019-03-29T11:06:12.197Z,1299.375
2019-03-29T11:07:12.312Z,1406.25
2019-03-29T11:08:12.529Z,1636.875
2019-03-29T11:09:12.531Z,1361.25
2019-03-29T11:10:12.701Z,1305
2019-03-29T11:11:12.785Z,1434.375
2019-03-29T11:12:12.885Z,1153.125
2019-03-29T11:13:14.061Z,1063.125
2019-03-29T11:14:13.107Z,1321.875
2019-03-29T11:15:13.179Z,1192.5
2019-03-29T11:16:13.299Z,1344.375
2019-03-29T11:17:13.480Z,1608.75
2019-03-29T11:18:13.450Z,1563.75
2019-03-29T11:19:13.590Z,1530
2019-03-29T11:20:13.631Z,1355.625
2019-03-29T11:21:13.696Z,1535.625
2019-03-29T11:22:13.780Z,1755
2019-03-29T11:23:13.883Z,1732.5
2019-03-29T11:24:13.941Z,1445.625
2019-03-29T11:25:14.044Z,1434.375
2019-03-29T11:26:14.131Z,1670.625
2019-03-29T11:27:14.235Z,1659.375
2019-03-29T11:28:15.320Z,1710
2019-03-29T11:29:15.380Z,1653.75
2019-03-29T11:30:14.434Z,1603.125
2019-03-29T11:31:14.493Z,1884.375
2019-03-29T11:32:14.551Z,1935
2019-03-29T11:33:14.603Z,1878.75
2019-03-29T11:34:14.687Z,1698.75
2019-03-29T11:35:14.734Z,1608.75
2019-03-29T11:36:14.784Z,1591.875
2019-03-29T11:37:14.841Z,1552.5
2019-03-29T11:38:14.910Z,1293.75
2019-03-29T11:39:15.078Z,1372.5
2019-03-29T11:40:15.004Z,1597.5
2019-03-29T11:41:15.040Z,1681.875
2019-03-29T11:42:15.086Z,1721.25
2019-03-29T11:43:25.905Z,1698.75
2019-03-29T11:44:16.200Z,1721.25
2019-03-29T11:45:15.239Z,1732.5
2019-03-29T11:46:15.370Z,1710
2019-03-29T11:47:15.446Z,1681.875
2019-03-29T11:48:15.534Z,1721.25
2019-03-29T11:49:15.616Z,1755
2019-03-29T11:50:15.663Z,1743.75
2019-03-29T11:51:19.435Z,1749.375
2019-03-29T11:52:15.764Z,1715.625
2019-03-29T11:53:15.821Z,1642.5
2019-03-29T11:54:15.940Z,1642.5
2019-03-29T11:55:16.006Z,1625.625
2019-03-29T11:56:16.062Z,1591.875
2019-03-29T11:57:16.122Z,1575
2019-03-29T11:58:16.177Z,1535.625
2019-03-29T11:59:16.392Z,1485
2019-03-29T12:00:16.284Z,1462.5
2019-03-29T12:01:16.347Z,1468.125
2019-03-29T12:02:30.113Z,1445.625
2019-03-29T12:03:17.447Z,1423.125
2019-03-29T12:04:16.576Z,1383.75
2019-03-29T12:05:16.638Z,1355.625
2019-03-29T12:06:16.697Z,1378.125
2019-03-29T12:07:16.761Z,1333.125
2019-03-29T12:08:16.848Z,1265.625
2019-03-29T12:09:16.925Z,1265.625
2019-03-29T12:10:17.005Z,1265.625
2019-03-29T12:11:17.089Z,1260
2019-03-29T12:12:17.142Z,1305
2019-03-29T12:13:17.232Z,1355.625
2019-03-29T12:14:17.287Z,1378.125
2019-03-29T12:15:17.368Z,1400.625
2019-03-29T12:16:17.427Z,1395
2019-03-29T12:17:17.489Z,1395
2019-03-29T12:18:17.548Z,1445.625
2019-03-29T12:19:17.595Z,1490.625
2019-03-29T12:20:17.701Z,1535.625
2019-03-29T12:21:17.757Z,1603.125
2019-03-29T12:22:17.842Z,1603.125
2019-03-29T12:23:17.905Z,1586.25
2019-03-29T12:24:17.952Z,1631.25
2019-03-29T12:25:18.058Z,1704.375
2019-03-29T12:26:18.120Z,1715.625
2019-03-29T12:27:18.247Z,1749.375
2019-03-29T12:28:18.419Z,1738.125
2019-03-29T12:29:18.371Z,1665
2019-03-29T12:30:30.966Z,1636.875
2019-03-29T12:31:19.580Z,1676.25
2019-03-29T12:32:18.622Z,1710
2019-03-29T12:33:18.689Z,1715.625
2019-03-29T12:34:18.764Z,1704.375
2019-03-29T12:35:18.878Z,1681.875
2019-03-29T12:36:18.927Z,1676.25
2019-03-29T12:37:19.021Z,1710
2019-03-29T12:38:19.098Z,1721.25
2019-03-29T12:39:19.167Z,1732.5
2019-03-29T12:40:19.345Z,1738.125
2019-03-29T12:41:19.389Z,1726.875
2019-03-29T12:42:19.471Z,1681.875
2019-03-29T12:43:19.531Z,1653.75
2019-03-29T12:44:19.610Z,1653.75
2019-03-29T12:45:19.707Z,1636.875
2019-03-29T12:46:19.769Z,1620
2019-03-29T12:47:19.840Z,1608.75
2019-03-29T12:48:19.898Z,1653.75
2019-03-29T12:49:19.953Z,1631.25
2019-03-29T12:50:20.022Z,1614.375
2019-03-29T12:51:20.071Z,1665
2019-03-29T12:52:20.128Z,1738.125
2019-03-29T12:53:20.199Z,1794.375
2019-03-29T12:54:20.274Z,1822.5
2019-03-29T12:55:20.408Z,1839.375
2019-03-29T12:56:20.453Z,1816.875
2019-03-29T12:57:20.561Z,1771.875
2019-03-29T12:58:20.621Z,1743.75
2019-03-29T12:59:20.681Z,1693.125
2019-03-29T13:00:20.764Z,1603.125
2019-03-29T13:01:20.851Z,1569.375
2019-03-29T13:02:21.901Z,1591.875
2019-03-29T13:03:21.024Z,1636.875
2019-03-29T13:04:21.009Z,1681.875
2019-03-29T13:05:21.094Z,1681.875
2019-03-29T13:06:21.160Z,1670.625
2019-03-29T13:07:21.231Z,1670.625
2019-03-29T13:08:21.273Z,1625.625
2019-03-29T13:09:21.340Z,1575
2019-03-29T13:10:21.443Z,1546.875
2019-03-29T13:11:21.493Z,1513.125
2019-03-29T13:12:21.566Z,1490.625
2019-03-29T13:13:21.619Z,1524.375
2019-03-29T13:14:21.684Z,1546.875
2019-03-29T13:15:21.773Z,1518.75
2019-03-29T13:16:21.827Z,1535.625
2019-03-29T13:17:21.870Z,1575
2019-03-29T13:18:21.929Z,1603.125